sensor_id;sensor_type;location;lat;lon;timestamp;pressure;altitude;pressure_sealevel;temperature;humidity
33845;BME280;20145;43.118;25.694;2022-08-19T00:01:20;99006.44;;;25.47;64.23
33845;BME280;20145;43.118;25.694;2022-08-19T00:03:46;99014.75;;;25.53;63.98
33845;BME280;20145;43.118;25.694;2022-08-19T00:06:12;99012.81;;;25.55;64.35
33845;BME280;20145;43.118;25.694;2022-08-19T00:08:38;99011.38;;;25.51;64.67
33845;BME280;20145;43.118;25.694;2022-08-19T00:11:03;99018.22;;;25.54;64.51
33845;BME280;20145;43.118;25.694;2022-08-19T00:13:29;99016.31;;;25.56;64.40
33845;BME280;20145;43.118;25.694;2022-08-19T00:15:56;99010.28;;;25.54;64.29
33845;BME280;20145;43.118;25.694;2022-08-19T00:18:21;99013.41;;;25.59;64.32
33845;BME280;20145;43.118;25.694;2022-08-19T00:20:47;99001.28;;;25.56;64.15
33845;BME280;20145;43.118;25.694;2022-08-19T00:23:13;99008.38;;;25.56;64.39
33845;BME280;20145;43.118;25.694;2022-08-19T00:25:40;98994.94;;;25.48;64.75
33845;BME280;20145;43.118;25.694;2022-08-19T00:28:06;98999.38;;;25.47;64.35
33845;BME280;20145;43.118;25.694;2022-08-19T00:30:31;99003.38;;;25.42;65.41
33845;BME280;20145;43.118;25.694;2022-08-19T00:32:57;99002.16;;;25.34;64.47
33845;BME280;20145;43.118;25.694;2022-08-19T00:35:23;99001.56;;;25.31;65.12
33845;BME280;20145;43.118;25.694;2022-08-19T00:37:49;98997.72;;;25.24;65.66
33845;BME280;20145;43.118;25.694;2022-08-19T00:40:16;99000.03;;;25.17;65.89
33845;BME280;20145;43.118;25.694;2022-08-19T00:42:42;98997.59;;;25.03;66.21
33845;BME280;20145;43.118;25.694;2022-08-19T00:45:13;99002.16;;;24.89;66.70
33845;BME280;20145;43.118;25.694;2022-08-19T00:47:39;99005.63;;;24.67;67.68
33845;BME280;20145;43.118;25.694;2022-08-19T00:50:06;99000.56;;;24.53;68.48
33845;BME280;20145;43.118;25.694;2022-08-19T00:52:35;98998.53;;;24.33;69.29
33845;BME280;20145;43.118;25.694;2022-08-19T00:55:04;98996.34;;;24.15;69.50
33845;BME280;20145;43.118;25.694;2022-08-19T00:57:35;99001.81;;;24.01;69.65
33845;BME280;20145;43.118;25.694;2022-08-19T01:00:06;98993.72;;;23.91;70.20
33845;BME280;20145;43.118;25.694;2022-08-19T01:02:33;98988.81;;;23.87;70.05
33845;BME280;20145;43.118;25.694;2022-08-19T01:05:01;98992.75;;;23.81;70.47
33845;BME280;20145;43.118;25.694;2022-08-19T01:07:27;98986.34;;;23.72;70.77
33845;BME280;20145;43.118;25.694;2022-08-19T01:09:53;98989.69;;;23.74;70.21
33845;BME280;20145;43.118;25.694;2022-08-19T01:12:19;98988.75;;;23.75;70.35
33845;BME280;20145;43.118;25.694;2022-08-19T01:14:45;98999.19;;;23.77;70.19
33845;BME280;20145;43.118;25.694;2022-08-19T01:17:11;98989.81;;;23.73;70.58
33845;BME280;20145;43.118;25.694;2022-08-19T01:19:41;98999.53;;;23.72;70.41
33845;BME280;20145;43.118;25.694;2022-08-19T01:22:43;98997.72;;;23.73;70.62
33845;BME280;20145;43.118;25.694;2022-08-19T01:25:09;98999.91;;;23.66;70.93
33845;BME280;20145;43.118;25.694;2022-08-19T01:27:40;98999.31;;;23.63;70.51
33845;BME280;20145;43.118;25.694;2022-08-19T01:30:07;99003.56;;;23.52;71.23
33845;BME280;20145;43.118;25.694;2022-08-19T01:32:33;99000.09;;;23.52;70.79
33845;BME280;20145;43.118;25.694;2022-08-19T01:35:01;99004.59;;;23.50;70.99
33845;BME280;20145;43.118;25.694;2022-08-19T01:37:28;99003.03;;;23.47;71.21
33845;BME280;20145;43.118;25.694;2022-08-19T01:39:54;99003.25;;;23.44;71.01
33845;BME280;20145;43.118;25.694;2022-08-19T01:42:19;99011.56;;;23.51;71.44
33845;BME280;20145;43.118;25.694;2022-08-19T01:44:45;98989.69;;;23.37;71.39
33845;BME280;20145;43.118;25.694;2022-08-19T01:47:10;98996.94;;;23.47;71.50
33845;BME280;20145;43.118;25.694;2022-08-19T01:49:36;98999.25;;;23.51;71.26
33845;BME280;20145;43.118;25.694;2022-08-19T01:52:03;99001.03;;;23.51;70.92
33845;BME280;20145;43.118;25.694;2022-08-19T01:54:29;99005.34;;;23.52;71.18
33845;BME280;20145;43.118;25.694;2022-08-19T01:57:08;99007.06;;;23.53;71.01
33845;BME280;20145;43.118;25.694;2022-08-19T01:59:36;99014.09;;;23.52;70.78
33845;BME280;20145;43.118;25.694;2022-08-19T02:02:04;99001.28;;;23.48;70.62
33845;BME280;20145;43.118;25.694;2022-08-19T02:04:32;99010.31;;;23.44;71.53
33845;BME280;20145;43.118;25.694;2022-08-19T02:06:58;99013.91;;;23.43;71.41
33845;BME280;20145;43.118;25.694;2022-08-19T02:09:23;99007.81;;;23.42;71.73
33845;BME280;20145;43.118;25.694;2022-08-19T02:11:49;98997.59;;;23.37;71.27
33845;BME280;20145;43.118;25.694;2022-08-19T02:14:14;99017.47;;;23.42;70.89
33845;BME280;20145;43.118;25.694;2022-08-19T02:19:24;99020.56;;;23.35;71.17
33845;BME280;20145;43.118;25.694;2022-08-19T02:21:49;99018.38;;;23.29;71.68
33845;BME280;20145;43.118;25.694;2022-08-19T02:24:15;99026.25;;;23.29;71.94
33845;BME280;20145;43.118;25.694;2022-08-19T02:26:42;99033.72;;;23.35;71.74
33845;BME280;20145;43.118;25.694;2022-08-19T02:29:07;99032.66;;;23.38;71.70
33845;BME280;20145;43.118;25.694;2022-08-19T02:31:33;99025.50;;;23.40;71.32
33845;BME280;20145;43.118;25.694;2022-08-19T02:33:58;99032.97;;;23.46;71.16
33845;BME280;20145;43.118;25.694;2022-08-19T02:36:25;99034.44;;;23.50;70.92
33845;BME280;20145;43.118;25.694;2022-08-19T02:38:50;99042.97;;;23.41;71.34
33845;BME280;20145;43.118;25.694;2022-08-19T02:41:21;99042.97;;;23.41;71.23
33845;BME280;20145;43.118;25.694;2022-08-19T02:43:47;99051.84;;;23.40;71.41
33845;BME280;20145;43.118;25.694;2022-08-19T02:46:22;99048.47;;;23.38;71.63
33845;BME280;20145;43.118;25.694;2022-08-19T02:48:50;99057.94;;;23.41;71.60
33845;BME280;20145;43.118;25.694;2022-08-19T02:51:21;99064.59;;;23.33;71.81
33845;BME280;20145;43.118;25.694;2022-08-19T02:53:47;99069.13;;;23.19;71.78
33845;BME280;20145;43.118;25.694;2022-08-19T02:56:13;99061.16;;;23.07;71.93
33845;BME280;20145;43.118;25.694;2022-08-19T02:58:38;99066.41;;;23.07;72.09
33845;BME280;20145;43.118;25.694;2022-08-19T03:01:04;99066.22;;;22.98;72.50
33845;BME280;20145;43.118;25.694;2022-08-19T03:03:29;99062.84;;;22.96;72.04
33845;BME280;20145;43.118;25.694;2022-08-19T03:06:06;99067.63;;;22.89;72.67
33845;BME280;20145;43.118;25.694;2022-08-19T03:08:31;99068.81;;;22.85;72.27
33845;BME280;20145;43.118;25.694;2022-08-19T03:10:57;99054.91;;;22.83;72.95
33845;BME280;20145;43.118;25.694;2022-08-19T03:13:23;99059.41;;;22.81;72.39
33845;BME280;20145;43.118;25.694;2022-08-19T03:15:49;99058.38;;;22.83;72.71
33845;BME280;20145;43.118;25.694;2022-08-19T03:18:15;99061.22;;;22.80;72.87
33845;BME280;20145;43.118;25.694;2022-08-19T03:20:48;99066.59;;;22.79;72.59
33845;BME280;20145;43.118;25.694;2022-08-19T03:23:15;99064.06;;;22.77;73.39
33845;BME280;20145;43.118;25.694;2022-08-19T03:25:43;99074.03;;;22.72;73.14
33845;BME280;20145;43.118;25.694;2022-08-19T03:28:14;99073.41;;;22.68;73.70
33845;BME280;20145;43.118;25.694;2022-08-19T03:30:41;99070.25;;;22.63;73.72
33845;BME280;20145;43.118;25.694;2022-08-19T03:33:08;99073.00;;;22.62;73.58
33845;BME280;20145;43.118;25.694;2022-08-19T03:35:35;99074.47;;;22.66;73.62
33845;BME280;20145;43.118;25.694;2022-08-19T03:38:03;99080.47;;;22.68;73.90
33845;BME280;20145;43.118;25.694;2022-08-19T03:40:29;99079.41;;;22.70;73.70
33845;BME280;20145;43.118;25.694;2022-08-19T03:42:56;99088.47;;;22.79;73.63
33845;BME280;20145;43.118;25.694;2022-08-19T03:45:22;99100.66;;;22.80;73.26
33845;BME280;20145;43.118;25.694;2022-08-19T03:47:48;99097.13;;;22.81;72.86
33845;BME280;20145;43.118;25.694;2022-08-19T03:50:14;99105.72;;;22.83;73.17
33845;BME280;20145;43.118;25.694;2022-08-19T03:52:40;99109.00;;;22.87;72.31
33845;BME280;20145;43.118;25.694;2022-08-19T03:55:06;99113.94;;;22.91;72.71
33845;BME280;20145;43.118;25.694;2022-08-19T03:57:33;99114.97;;;23.03;72.50
33845;BME280;20145;43.118;25.694;2022-08-19T03:59:59;99113.25;;;23.15;72.21
33845;BME280;20145;43.118;25.694;2022-08-19T04:02:25;99119.78;;;23.35;72.07
33845;BME280;20145;43.118;25.694;2022-08-19T04:04:53;99125.66;;;23.51;71.23
33845;BME280;20145;43.118;25.694;2022-08-19T04:07:19;99116.06;;;23.63;70.24
33845;BME280;20145;43.118;25.694;2022-08-19T04:09:47;99130.16;;;23.88;69.29
33845;BME280;20145;43.118;25.694;2022-08-19T04:12:13;99115.38;;;23.98;69.38
33845;BME280;20145;43.118;25.694;2022-08-19T04:14:40;99131.03;;;24.12;69.26
33845;BME280;20145;43.118;25.694;2022-08-19T04:17:06;99131.91;;;24.24;68.61
33845;BME280;20145;43.118;25.694;2022-08-19T04:19:34;99127.75;;;24.33;68.92
33845;BME280;20145;43.118;25.694;2022-08-19T04:22:00;99130.88;;;24.51;67.50
33845;BME280;20145;43.118;25.694;2022-08-19T04:24:27;99134.78;;;24.69;68.25
33845;BME280;20145;43.118;25.694;2022-08-19T04:26:53;99125.72;;;24.84;67.50
33845;BME280;20145;43.118;25.694;2022-08-19T04:29:21;99133.81;;;25.05;67.43
33845;BME280;20145;43.118;25.694;2022-08-19T04:31:47;99129.78;;;25.24;66.61
33845;BME280;20145;43.118;25.694;2022-08-19T04:34:17;99132.66;;;25.43;66.45
33845;BME280;20145;43.118;25.694;2022-08-19T04:36:44;99132.66;;;25.66;65.48
33845;BME280;20145;43.118;25.694;2022-08-19T04:39:14;99131.72;;;25.89;64.49
33845;BME280;20145;43.118;25.694;2022-08-19T04:41:41;99127.09;;;26.14;64.03
33845;BME280;20145;43.118;25.694;2022-08-19T04:44:26;99132.06;;;26.39;64.58
33845;BME280;20145;43.118;25.694;2022-08-19T04:46:56;99132.25;;;26.59;63.33
33845;BME280;20145;43.118;25.694;2022-08-19T04:49:22;99129.03;;;26.76;62.21
33845;BME280;20145;43.118;25.694;2022-08-19T04:51:48;99128.22;;;26.97;60.76
33845;BME280;20145;43.118;25.694;2022-08-19T04:54:16;99131.94;;;27.15;58.60
33845;BME280;20145;43.118;25.694;2022-08-19T04:56:42;99131.63;;;27.29;58.85
33845;BME280;20145;43.118;25.694;2022-08-19T04:59:10;99137.81;;;27.40;58.64
33845;BME280;20145;43.118;25.694;2022-08-19T05:01:36;99143.34;;;27.57;58.17
33845;BME280;20145;43.118;25.694;2022-08-19T05:04:04;99146.31;;;27.74;57.95
33845;BME280;20145;43.118;25.694;2022-08-19T05:06:32;99147.25;;;27.94;57.73
33845;BME280;20145;43.118;25.694;2022-08-19T05:09:03;99140.03;;;28.06;57.90
33845;BME280;20145;43.118;25.694;2022-08-19T05:11:32;99134.31;;;28.20;57.01
33845;BME280;20145;43.118;25.694;2022-08-19T05:13:58;99139.94;;;28.36;56.45
33845;BME280;20145;43.118;25.694;2022-08-19T05:16:25;99139.81;;;28.48;56.58
33845;BME280;20145;43.118;25.694;2022-08-19T05:18:51;99139.81;;;28.48;54.77
33845;BME280;20145;43.118;25.694;2022-08-19T05:21:36;99141.31;;;28.40;55.29
33845;BME280;20145;43.118;25.694;2022-08-19T05:24:21;99136.41;;;28.26;54.89
33845;BME280;20145;43.118;25.694;2022-08-19T05:26:49;99138.25;;;28.16;56.57
33845;BME280;20145;43.118;25.694;2022-08-19T05:29:18;99144.25;;;28.28;56.75
33845;BME280;20145;43.118;25.694;2022-08-19T05:31:44;99138.78;;;28.29;56.17
33845;BME280;20145;43.118;25.694;2022-08-19T05:34:10;99143.53;;;28.25;56.62
33845;BME280;20145;43.118;25.694;2022-08-19T05:36:39;99144.50;;;28.05;57.05
33845;BME280;20145;43.118;25.694;2022-08-19T05:39:12;99149.16;;;27.82;57.16
33845;BME280;20145;43.118;25.694;2022-08-19T05:41:47;99149.75;;;27.86;58.59
33845;BME280;20145;43.118;25.694;2022-08-19T05:44:14;99147.13;;;27.95;57.82
33845;BME280;20145;43.118;25.694;2022-08-19T05:46:40;99157.31;;;28.00;56.88
33845;BME280;20145;43.118;25.694;2022-08-19T05:49:08;99138.75;;;28.00;57.34
33845;BME280;20145;43.118;25.694;2022-08-19T05:51:35;99151.72;;;27.93;57.70
33845;BME280;20145;43.118;25.694;2022-08-19T05:54:04;99139.88;;;27.97;57.88
33845;BME280;20145;43.118;25.694;2022-08-19T05:56:31;99140.91;;;28.16;57.05
33845;BME280;20145;43.118;25.694;2022-08-19T05:58:57;99143.25;;;28.19;56.84
33845;BME280;20145;43.118;25.694;2022-08-19T06:01:25;99143.94;;;28.11;57.72
33845;BME280;20145;43.118;25.694;2022-08-19T06:03:51;99146.75;;;28.29;57.46
33845;BME280;20145;43.118;25.694;2022-08-19T06:06:17;99147.66;;;28.49;56.65
33845;BME280;20145;43.118;25.694;2022-08-19T06:08:43;99147.34;;;28.62;55.70
33845;BME280;20145;43.118;25.694;2022-08-19T06:11:31;99145.97;;;28.67;54.91
33845;BME280;20145;43.118;25.694;2022-08-19T06:14:05;99152.69;;;28.72;54.32
33845;BME280;20145;43.118;25.694;2022-08-19T06:16:38;99147.91;;;28.85;54.15
33845;BME280;20145;43.118;25.694;2022-08-19T06:19:07;99137.84;;;29.08;53.64
33845;BME280;20145;43.118;25.694;2022-08-19T06:21:35;99139.44;;;29.28;52.34
33845;BME280;20145;43.118;25.694;2022-08-19T06:24:04;99145.06;;;29.25;52.82
33845;BME280;20145;43.118;25.694;2022-08-19T06:26:30;99140.16;;;29.30;52.69
33845;BME280;20145;43.118;25.694;2022-08-19T06:28:56;99148.66;;;29.34;52.00
33845;BME280;20145;43.118;25.694;2022-08-19T06:31:26;99146.19;;;29.23;51.87
33845;BME280;20145;43.118;25.694;2022-08-19T06:33:52;99137.78;;;29.27;51.60
33845;BME280;20145;43.118;25.694;2022-08-19T06:36:24;99148.94;;;29.41;51.16
33845;BME280;20145;43.118;25.694;2022-08-19T06:38:58;99147.91;;;29.51;51.24
33845;BME280;20145;43.118;25.694;2022-08-19T06:41:25;99144.69;;;29.48;50.61
33845;BME280;20145;43.118;25.694;2022-08-19T06:43:51;99150.84;;;29.48;50.85
33845;BME280;20145;43.118;25.694;2022-08-19T06:46:17;99147.75;;;29.53;51.14
33845;BME280;20145;43.118;25.694;2022-08-19T06:48:44;99142.69;;;29.60;50.71
33845;BME280;20145;43.118;25.694;2022-08-19T06:51:09;99136.41;;;29.61;50.05
33845;BME280;20145;43.118;25.694;2022-08-19T06:53:35;99155.97;;;29.60;50.41
33845;BME280;20145;43.118;25.694;2022-08-19T06:56:01;99146.22;;;29.60;50.50
33845;BME280;20145;43.118;25.694;2022-08-19T06:58:29;99146.78;;;29.54;50.21
33845;BME280;20145;43.118;25.694;2022-08-19T07:01:02;99146.09;;;29.52;51.10
33845;BME280;20145;43.118;25.694;2022-08-19T07:03:30;99142.16;;;29.56;51.12
33845;BME280;20145;43.118;25.694;2022-08-19T07:05:57;99139.19;;;29.59;50.77
33845;BME280;20145;43.118;25.694;2022-08-19T07:08:24;99140.72;;;29.71;50.77
33845;BME280;20145;43.118;25.694;2022-08-19T07:10:51;99131.84;;;29.81;50.93
33845;BME280;20145;43.118;25.694;2022-08-19T07:13:17;99144.25;;;29.90;49.71
33845;BME280;20145;43.118;25.694;2022-08-19T07:15:42;99141.56;;;29.72;49.61
33845;BME280;20145;43.118;25.694;2022-08-19T07:18:08;99140.66;;;29.81;49.80
33845;BME280;20145;43.118;25.694;2022-08-19T07:20:34;99138.28;;;29.88;50.29
33845;BME280;20145;43.118;25.694;2022-08-19T07:22:59;99136.94;;;30.01;50.58
33845;BME280;20145;43.118;25.694;2022-08-19T07:25:25;99133.56;;;30.17;49.86
33845;BME280;20145;43.118;25.694;2022-08-19T07:27:51;99148.41;;;30.20;49.08
33845;BME280;20145;43.118;25.694;2022-08-19T07:30:16;99140.16;;;30.23;49.11
33845;BME280;20145;43.118;25.694;2022-08-19T07:32:42;99136.78;;;30.21;48.99
33845;BME280;20145;43.118;25.694;2022-08-19T07:35:09;99147.56;;;30.29;48.78
33845;BME280;20145;43.118;25.694;2022-08-19T07:37:35;99145.94;;;30.36;48.74
33845;BME280;20145;43.118;25.694;2022-08-19T07:40:04;99147.56;;;30.29;48.63
33845;BME280;20145;43.118;25.694;2022-08-19T07:42:30;99148.09;;;30.33;48.81
33845;BME280;20145;43.118;25.694;2022-08-19T07:44:56;99152.75;;;30.49;49.44
33845;BME280;20145;43.118;25.694;2022-08-19T07:47:22;99152.34;;;30.43;48.99
33845;BME280;20145;43.118;25.694;2022-08-19T07:49:48;99146.50;;;30.58;48.67
33845;BME280;20145;43.118;25.694;2022-08-19T07:52:14;99150.00;;;30.40;49.24
33845;BME280;20145;43.118;25.694;2022-08-19T07:54:39;99143.59;;;30.51;49.38
33845;BME280;20145;43.118;25.694;2022-08-19T07:57:07;99148.38;;;30.48;48.79
33845;BME280;20145;43.118;25.694;2022-08-19T07:59:34;99144.75;;;30.49;48.22
33845;BME280;20145;43.118;25.694;2022-08-19T08:02:00;99145.19;;;30.26;48.86
33845;BME280;20145;43.118;25.694;2022-08-19T08:04:27;99147.69;;;30.28;48.79
33845;BME280;20145;43.118;25.694;2022-08-19T08:07:11;99147.84;;;30.26;48.98
33845;BME280;20145;43.118;25.694;2022-08-19T08:09:55;99137.25;;;30.16;48.52
33845;BME280;20145;43.118;25.694;2022-08-19T08:12:28;99137.19;;;30.26;48.79
33845;BME280;20145;43.118;25.694;2022-08-19T08:14:58;99141.16;;;30.40;48.78
33845;BME280;20145;43.118;25.694;2022-08-19T08:17:28;99137.22;;;30.44;48.20
33845;BME280;20145;43.118;25.694;2022-08-19T08:19:54;99138.03;;;30.44;47.05
33845;BME280;20145;43.118;25.694;2022-08-19T08:22:22;99146.09;;;30.53;46.15
33845;BME280;20145;43.118;25.694;2022-08-19T08:25:11;99140.09;;;30.51;45.43
33845;BME280;20145;43.118;25.694;2022-08-19T08:27:39;99139.19;;;30.60;46.49
33845;BME280;20145;43.118;25.694;2022-08-19T08:30:10;99138.09;;;30.71;46.62
33845;BME280;20145;43.118;25.694;2022-08-19T08:32:37;99140.47;;;30.92;45.67
33845;BME280;20145;43.118;25.694;2022-08-19T08:35:06;99138.78;;;30.73;46.22
33845;BME280;20145;43.118;25.694;2022-08-19T08:37:32;99142.38;;;30.63;46.43
33845;BME280;20145;43.118;25.694;2022-08-19T08:39:58;99130.44;;;30.50;46.33
33845;BME280;20145;43.118;25.694;2022-08-19T08:42:33;99130.44;;;30.50;47.05
33845;BME280;20145;43.118;25.694;2022-08-19T08:45:03;99127.31;;;30.54;46.79
33845;BME280;20145;43.118;25.694;2022-08-19T08:47:35;99139.78;;;30.72;45.87
33845;BME280;20145;43.118;25.694;2022-08-19T08:50:07;99130.13;;;30.88;46.52
33845;BME280;20145;43.118;25.694;2022-08-19T08:52:39;99128.59;;;30.86;45.11
33845;BME280;20145;43.118;25.694;2022-08-19T08:55:23;99130.25;;;30.69;45.36
33845;BME280;20145;43.118;25.694;2022-08-19T09:00:22;99132.00;;;30.96;44.98
33845;BME280;20145;43.118;25.694;2022-08-19T09:02:52;99129.72;;;31.01;44.70
33845;BME280;20145;43.118;25.694;2022-08-19T09:05:20;99133.03;;;31.03;45.01
33845;BME280;20145;43.118;25.694;2022-08-19T09:16:20;99123.34;;;31.46;44.08
33845;BME280;20145;43.118;25.694;2022-08-19T09:18:55;99114.88;;;31.59;44.22
33845;BME280;20145;43.118;25.694;2022-08-19T09:21:23;99113.59;;;31.71;44.58
33845;BME280;20145;43.118;25.694;2022-08-19T09:23:51;99112.78;;;31.71;43.55
33845;BME280;20145;43.118;25.694;2022-08-19T09:26:19;99112.13;;;31.77;44.35
33845;BME280;20145;43.118;25.694;2022-08-19T09:28:48;99121.13;;;31.84;43.94
33845;BME280;20145;43.118;25.694;2022-08-19T09:31:18;99117.53;;;31.59;43.45
33845;BME280;20145;43.118;25.694;2022-08-19T09:33:45;99116.91;;;31.65;44.74
33845;BME280;20145;43.118;25.694;2022-08-19T09:36:14;99109.25;;;31.78;44.34
33845;BME280;20145;43.118;25.694;2022-08-19T09:38:41;99100.69;;;31.93;44.25
33845;BME280;20145;43.118;25.694;2022-08-19T09:41:11;99107.63;;;31.86;42.70
33845;BME280;20145;43.118;25.694;2022-08-19T09:43:39;99098.06;;;31.67;43.07
33845;BME280;20145;43.118;25.694;2022-08-19T09:46:07;99104.97;;;31.86;42.47
33845;BME280;20145;43.118;25.694;2022-08-19T09:48:37;99103.38;;;31.93;42.92
33845;BME280;20145;43.118;25.694;2022-08-19T09:51:09;99096.00;;;31.95;43.15
33845;BME280;20145;43.118;25.694;2022-08-19T09:53:36;99101.56;;;32.10;43.73
33845;BME280;20145;43.118;25.694;2022-08-19T09:56:03;99101.41;;;32.28;42.85
33845;BME280;20145;43.118;25.694;2022-08-19T09:58:29;99092.91;;;32.40;42.47
33845;BME280;20145;43.118;25.694;2022-08-19T10:00:56;99089.75;;;32.70;42.66
33845;BME280;20145;43.118;25.694;2022-08-19T10:03:24;99100.28;;;32.71;42.58
33845;BME280;20145;43.118;25.694;2022-08-19T10:05:50;99086.09;;;32.54;42.18
33845;BME280;20145;43.118;25.694;2022-08-19T10:08:18;99091.78;;;32.68;43.03
33845;BME280;20145;43.118;25.694;2022-08-19T10:10:45;99094.09;;;32.87;42.78
33845;BME280;20145;43.118;25.694;2022-08-19T10:13:11;99088.06;;;32.93;41.49
33845;BME280;20145;43.118;25.694;2022-08-19T10:15:37;99089.03;;;32.92;41.54
33845;BME280;20145;43.118;25.694;2022-08-19T10:18:05;99086.72;;;32.81;40.73
33845;BME280;20145;43.118;25.694;2022-08-19T10:20:31;99089.41;;;32.64;41.52
33845;BME280;20145;43.118;25.694;2022-08-19T10:22:57;99083.06;;;32.82;41.50
33845;BME280;20145;43.118;25.694;2022-08-19T10:25:25;99087.72;;;33.13;40.71
33845;BME280;20145;43.118;25.694;2022-08-19T10:27:52;99074.75;;;33.32;40.72
33845;BME280;20145;43.118;25.694;2022-08-19T10:30:19;99070.66;;;33.61;39.73
33845;BME280;20145;43.118;25.694;2022-08-19T10:32:45;99070.22;;;33.81;39.06
33845;BME280;20145;43.118;25.694;2022-08-19T10:35:12;99060.56;;;33.71;38.67
33845;BME280;20145;43.118;25.694;2022-08-19T10:37:38;99070.69;;;32.81;39.48
33845;BME280;20145;43.118;25.694;2022-08-19T10:40:07;99069.03;;;32.80;39.72
33845;BME280;20145;43.118;25.694;2022-08-19T10:42:35;99070.31;;;32.92;40.51
33845;BME280;20145;43.118;25.694;2022-08-19T10:45:01;99072.16;;;33.08;39.68
33845;BME280;20145;43.118;25.694;2022-08-19T10:47:27;99071.09;;;33.25;39.23
33845;BME280;20145;43.118;25.694;2022-08-19T10:49:54;99069.19;;;33.42;39.19
33845;BME280;20145;43.118;25.694;2022-08-19T10:52:40;99065.66;;;33.50;38.42
33845;BME280;20145;43.118;25.694;2022-08-19T10:55:06;99061.50;;;33.47;37.35
33845;BME280;20145;43.118;25.694;2022-08-19T10:57:51;99063.06;;;33.33;37.86
33845;BME280;20145;43.118;25.694;2022-08-19T11:00:21;99061.53;;;33.39;37.93
33845;BME280;20145;43.118;25.694;2022-08-19T11:02:48;99058.28;;;33.13;38.53
33845;BME280;20145;43.118;25.694;2022-08-19T11:05:15;99054.31;;;32.84;39.88
33845;BME280;20145;43.118;25.694;2022-08-19T11:07:41;99057.31;;;32.81;39.52
33845;BME280;20145;43.118;25.694;2022-08-19T11:10:09;99061.69;;;32.82;38.98
33845;BME280;20145;43.118;25.694;2022-08-19T11:12:37;99060.69;;;32.75;40.12
33845;BME280;20145;43.118;25.694;2022-08-19T11:15:08;99062.66;;;32.89;38.71
33845;BME280;20145;43.118;25.694;2022-08-19T11:17:38;99066.16;;;33.06;39.36
33845;BME280;20145;43.118;25.694;2022-08-19T11:20:13;99057.13;;;33.15;38.31
33845;BME280;20145;43.118;25.694;2022-08-19T11:22:40;99055.94;;;33.18;36.83
33845;BME280;20145;43.118;25.694;2022-08-19T11:25:06;99045.31;;;33.41;36.62
33845;BME280;20145;43.118;25.694;2022-08-19T11:27:32;99042.03;;;33.62;35.61
33845;BME280;20145;43.118;25.694;2022-08-19T11:29:59;99050.25;;;33.60;35.95
33845;BME280;20145;43.118;25.694;2022-08-19T11:32:26;99054.66;;;33.37;35.99
33845;BME280;20145;43.118;25.694;2022-08-19T11:34:52;99044.41;;;33.65;36.54
33845;BME280;20145;43.118;25.694;2022-08-19T11:37:17;99038.22;;;33.87;35.94
33845;BME280;20145;43.118;25.694;2022-08-19T11:39:43;99039.94;;;34.03;35.64
33845;BME280;20145;43.118;25.694;2022-08-19T11:42:08;99026.34;;;34.13;36.18
33845;BME280;20145;43.118;25.694;2022-08-19T11:44:53;99034.84;;;34.39;35.78
33845;BME280;20145;43.118;25.694;2022-08-19T11:47:19;99037.03;;;34.59;36.27
33845;BME280;20145;43.118;25.694;2022-08-19T11:49:46;99034.19;;;34.37;36.02
33845;BME280;20145;43.118;25.694;2022-08-19T11:52:12;99035.56;;;34.33;35.48
33845;BME280;20145;43.118;25.694;2022-08-19T11:54:37;99035.44;;;34.27;36.10
33845;BME280;20145;43.118;25.694;2022-08-19T11:57:03;99033.97;;;34.24;35.72
33845;BME280;20145;43.118;25.694;2022-08-19T11:59:29;99031.28;;;34.24;35.78
33845;BME280;20145;43.118;25.694;2022-08-19T12:01:55;99026.69;;;34.33;35.80
33845;BME280;20145;43.118;25.694;2022-08-19T12:04:21;99028.53;;;34.32;35.56
33845;BME280;20145;43.118;25.694;2022-08-19T12:06:47;99028.59;;;34.24;35.90
33845;BME280;20145;43.118;25.694;2022-08-19T12:09:15;99018.41;;;34.19;36.00
33845;BME280;20145;43.118;25.694;2022-08-19T12:11:43;99025.03;;;34.09;36.59
33845;BME280;20145;43.118;25.694;2022-08-19T12:14:12;99019.44;;;33.95;36.60
33845;BME280;20145;43.118;25.694;2022-08-19T12:16:38;99015.63;;;33.59;37.08
33845;BME280;20145;43.118;25.694;2022-08-19T12:19:04;99019.47;;;33.25;37.00
33845;BME280;20145;43.118;25.694;2022-08-19T12:21:33;99015.16;;;33.16;37.25
33845;BME280;20145;43.118;25.694;2022-08-19T12:24:01;99005.78;;;33.12;37.16
33845;BME280;20145;43.118;25.694;2022-08-19T12:26:28;99011.75;;;33.30;36.15
33845;BME280;20145;43.118;25.694;2022-08-19T12:28:54;99004.31;;;33.48;36.76
33845;BME280;20145;43.118;25.694;2022-08-19T12:31:19;99002.50;;;33.72;36.42
33845;BME280;20145;43.118;25.694;2022-08-19T12:33:46;99000.38;;;33.90;36.89
33845;BME280;20145;43.118;25.694;2022-08-19T12:36:13;98996.75;;;33.83;35.62
33845;BME280;20145;43.118;25.694;2022-08-19T12:38:41;99011.50;;;33.79;34.88
33845;BME280;20145;43.118;25.694;2022-08-19T12:41:12;98991.22;;;33.85;35.99
33845;BME280;20145;43.118;25.694;2022-08-19T12:43:37;98994.66;;;33.93;35.52
33845;BME280;20145;43.118;25.694;2022-08-19T12:46:04;98997.63;;;34.07;35.24
33845;BME280;20145;43.118;25.694;2022-08-19T12:48:31;98996.97;;;34.05;35.12
33845;BME280;20145;43.118;25.694;2022-08-19T12:50:56;98991.16;;;34.16;34.92
33845;BME280;20145;43.118;25.694;2022-08-19T12:53:23;98982.47;;;34.14;35.88
33845;BME280;20145;43.118;25.694;2022-08-19T12:55:55;98986.78;;;34.23;35.58
33845;BME280;20145;43.118;25.694;2022-08-19T12:58:21;98985.97;;;34.37;35.83
33845;BME280;20145;43.118;25.694;2022-08-19T13:00:48;98987.84;;;34.14;35.64
33845;BME280;20145;43.118;25.694;2022-08-19T13:03:14;98997.34;;;33.93;35.67
33845;BME280;20145;43.118;25.694;2022-08-19T13:05:41;98988.94;;;33.96;34.47
33845;BME280;20145;43.118;25.694;2022-08-19T13:08:06;98979.91;;;33.97;35.09